This is the latest recevied weather packets stored in our database for station/object SQ9PDE-13. If no packets are shown the sender has not sent any weather packets the latest 10 day(s).
| Time | Temp. | Humidity | Pressure | Rain* | Wind** | Luminosity | Snow |
|---|---|---|---|---|---|---|---|
| 1777377517 | 11.11° C | 33% | 1023.5 hPa | - | - | - | - |
| 1777377216 | 10.56° C | 33% | 1023.7 hPa | - | - | - | - |
| 1777376916 | 10.56° C | 33% | 1023.7 hPa | - | - | - | - |
| 1777376615 | 10.56° C | 33% | 1023.6 hPa | - | - | - | - |
| 1777376314 | 11.67° C | 33% | 1023.3 hPa | - | - | - | - |
| 1777376014 | 11.11° C | 33% | 1023.5 hPa | - | - | - | - |
| 1777375714 | 10.56° C | 33% | 1023.7 hPa | - | - | - | - |
| 1777375413 | 10.56° C | 34% | 1023.8 hPa | - | - | - | - |
| 1777375112 | 10.56° C | 34% | 1023.8 hPa | - | - | - | - |
| 1777374812 | 10.56° C | 34% | 1023.9 hPa | - | - | - | - |
| 1777374511 | 10.56° C | 34% | 1024 hPa | - | - | - | - |
| 1777374211 | 10° C | 34% | 1024 hPa | - | - | - | - |
| 1777373910 | 10.56° C | 32% | 1024 hPa | - | - | - | - |
| 1777373610 | 11.11° C | 34% | 1023.8 hPa | - | - | - | - |
| 1777373309 | 10.56° C | 32% | 1024 hPa | - | - | - | - |
| 1777373009 | 10.56° C | 32% | 1024.1 hPa | - | - | - | - |
| 1777372708 | 10° C | 32% | 1024.2 hPa | - | - | - | - |
| 1777372408 | 10.56° C | 32% | 1024 hPa | - | - | - | - |
| 1777372107 | 10° C | 33% | 1024.1 hPa | - | - | - | - |
| 1777371807 | 11.11° C | 32% | 1024.1 hPa | - | - | - | - |
| 1777371506 | 12.78° C | 32% | 1023.7 hPa | - | - | - | - |
| 1777371206 | 11.11° C | 32% | 1024 hPa | - | - | - | - |
| 1777370905 | 10.56° C | 33% | 1024.1 hPa | - | - | - | - |
| 1777370605 | 12.78° C | 31% | 1023.6 hPa | - | - | - | - |
| 1777370304 | 12.78° C | 32% | 1023.7 hPa | - | - | - | - |
* Rain since midnight (hover to see other rain measurements)
** Current wind speed in m/s (hover to see current wind gust speed)